sensor_id;sensor_type;location;lat;lon;timestamp;P1;durP1;ratioP1;P2;durP2;ratioP2
41077;SDS011;26823;42.662;23.352;2023-05-07T00:02:06;8.15;;;6.10;;
41077;SDS011;26823;42.662;23.352;2023-05-07T00:04:32;12.77;;;6.22;;
41077;SDS011;26823;42.662;23.352;2023-05-07T00:07:01;6.22;;;5.47;;
41077;SDS011;26823;42.662;23.352;2023-05-07T00:09:27;7.22;;;5.53;;
41077;SDS011;26823;42.662;23.352;2023-05-07T00:11:53;9.10;;;6.07;;
41077;SDS011;26823;42.662;23.352;2023-05-07T00:14:18;11.98;;;7.40;;
41077;SDS011;26823;42.662;23.352;2023-05-07T00:16:43;10.93;;;6.95;;
41077;SDS011;26823;42.662;23.352;2023-05-07T00:19:09;11.48;;;7.13;;
41077;SDS011;26823;42.662;23.352;2023-05-07T00:21:34;10.95;;;7.35;;
41077;SDS011;26823;42.662;23.352;2023-05-07T00:24:00;9.32;;;7.20;;
41077;SDS011;26823;42.662;23.352;2023-05-07T00:26:25;13.43;;;9.48;;
41077;SDS011;26823;42.662;23.352;2023-05-07T00:28:51;12.00;;;9.30;;
41077;SDS011;26823;42.662;23.352;2023-05-07T00:31:16;13.57;;;8.68;;
41077;SDS011;26823;42.662;23.352;2023-05-07T00:33:41;13.43;;;10.02;;
41077;SDS011;26823;42.662;23.352;2023-05-07T00:36:07;18.23;;;10.13;;
41077;SDS011;26823;42.662;23.352;2023-05-07T00:38:32;13.63;;;9.77;;
41077;SDS011;26823;42.662;23.352;2023-05-07T00:40:58;14.30;;;10.68;;
41077;SDS011;26823;42.662;23.352;2023-05-07T00:43:23;20.05;;;11.40;;
41077;SDS011;26823;42.662;23.352;2023-05-07T00:45:48;15.93;;;10.13;;
41077;SDS011;26823;42.662;23.352;2023-05-07T00:48:15;16.48;;;10.55;;
41077;SDS011;26823;42.662;23.352;2023-05-07T00:50:40;14.73;;;8.43;;
41077;SDS011;26823;42.662;23.352;2023-05-07T00:53:07;13.23;;;8.98;;
41077;SDS011;26823;42.662;23.352;2023-05-07T00:55:32;15.30;;;9.90;;
41077;SDS011;26823;42.662;23.352;2023-05-07T00:57:58;16.58;;;10.63;;
41077;SDS011;26823;42.662;23.352;2023-05-07T01:00:23;14.88;;;9.77;;
41077;SDS011;26823;42.662;23.352;2023-05-07T01:02:50;12.90;;;9.30;;
41077;SDS011;26823;42.662;23.352;2023-05-07T01:05:15;12.55;;;9.55;;
41077;SDS011;26823;42.662;23.352;2023-05-07T01:07:43;15.50;;;10.02;;
41077;SDS011;26823;42.662;23.352;2023-05-07T01:10:10;20.27;;;10.57;;
41077;SDS011;26823;42.662;23.352;2023-05-07T01:12:37;17.92;;;9.57;;
41077;SDS011;26823;42.662;23.352;2023-05-07T01:15:04;14.45;;;9.23;;
41077;SDS011;26823;42.662;23.352;2023-05-07T01:17:37;16.52;;;10.20;;
41077;SDS011;26823;42.662;23.352;2023-05-07T01:20:05;12.75;;;7.82;;
41077;SDS011;26823;42.662;23.352;2023-05-07T01:22:32;8.60;;;6.88;;
41077;SDS011;26823;42.662;23.352;2023-05-07T01:24:59;8.85;;;5.70;;
41077;SDS011;26823;42.662;23.352;2023-05-07T01:27:26;6.75;;;5.47;;
41077;SDS011;26823;42.662;23.352;2023-05-07T01:29:52;8.65;;;5.47;;
41077;SDS011;26823;42.662;23.352;2023-05-07T01:32:18;7.07;;;5.53;;
41077;SDS011;26823;42.662;23.352;2023-05-07T01:34:48;6.95;;;5.47;;
41077;SDS011;26823;42.662;23.352;2023-05-07T01:37:15;9.05;;;6.18;;
41077;SDS011;26823;42.662;23.352;2023-05-07T01:39:42;9.02;;;6.18;;
41077;SDS011;26823;42.662;23.352;2023-05-07T01:42:07;6.65;;;5.32;;
41077;SDS011;26823;42.662;23.352;2023-05-07T01:44:33;8.75;;;5.63;;
41077;SDS011;26823;42.662;23.352;2023-05-07T01:46:58;8.95;;;5.25;;
41077;SDS011;26823;42.662;23.352;2023-05-07T01:49:24;7.47;;;5.25;;
41077;SDS011;26823;42.662;23.352;2023-05-07T01:51:50;7.10;;;5.85;;
41077;SDS011;26823;42.662;23.352;2023-05-07T01:54:16;7.50;;;6.03;;
41077;SDS011;26823;42.662;23.352;2023-05-07T01:56:41;9.15;;;5.65;;
41077;SDS011;26823;42.662;23.352;2023-05-07T01:59:07;7.20;;;6.50;;
41077;SDS011;26823;42.662;23.352;2023-05-07T02:01:32;7.18;;;5.38;;
41077;SDS011;26823;42.662;23.352;2023-05-07T02:03:58;8.27;;;6.82;;
41077;SDS011;26823;42.662;23.352;2023-05-07T02:06:23;6.50;;;5.28;;
41077;SDS011;26823;42.662;23.352;2023-05-07T02:08:48;9.40;;;6.13;;
41077;SDS011;26823;42.662;23.352;2023-05-07T02:11:14;9.55;;;5.90;;
41077;SDS011;26823;42.662;23.352;2023-05-07T02:13:40;7.93;;;6.72;;
41077;SDS011;26823;42.662;23.352;2023-05-07T02:16:05;8.50;;;7.18;;
41077;SDS011;26823;42.662;23.352;2023-05-07T02:18:31;8.35;;;7.15;;
41077;SDS011;26823;42.662;23.352;2023-05-07T02:20:57;9.50;;;7.25;;
41077;SDS011;26823;42.662;23.352;2023-05-07T02:23:22;8.50;;;7.53;;
41077;SDS011;26823;42.662;23.352;2023-05-07T02:25:47;11.05;;;7.90;;
41077;SDS011;26823;42.662;23.352;2023-05-07T02:28:13;10.93;;;7.25;;
41077;SDS011;26823;42.662;23.352;2023-05-07T02:30:38;8.57;;;7.65;;
41077;SDS011;26823;42.662;23.352;2023-05-07T02:33:04;10.82;;;7.88;;
41077;SDS011;26823;42.662;23.352;2023-05-07T02:35:31;10.45;;;7.80;;
41077;SDS011;26823;42.662;23.352;2023-05-07T02:37:56;10.23;;;7.80;;
41077;SDS011;26823;42.662;23.352;2023-05-07T02:40:22;9.88;;;7.57;;
41077;SDS011;26823;42.662;23.352;2023-05-07T02:42:47;9.13;;;7.95;;
41077;SDS011;26823;42.662;23.352;2023-05-07T02:45:13;8.88;;;7.95;;
41077;SDS011;26823;42.662;23.352;2023-05-07T02:47:39;8.55;;;7.60;;
41077;SDS011;26823;42.662;23.352;2023-05-07T02:50:05;10.68;;;7.82;;
41077;SDS011;26823;42.662;23.352;2023-05-07T02:52:31;8.73;;;7.30;;
41077;SDS011;26823;42.662;23.352;2023-05-07T02:54:56;10.45;;;7.40;;
41077;SDS011;26823;42.662;23.352;2023-05-07T02:57:22;11.70;;;7.82;;
41077;SDS011;26823;42.662;23.352;2023-05-07T02:59:47;11.73;;;8.00;;
41077;SDS011;26823;42.662;23.352;2023-05-07T03:02:12;12.95;;;8.40;;
41077;SDS011;26823;42.662;23.352;2023-05-07T03:04:39;10.63;;;7.90;;
41077;SDS011;26823;42.662;23.352;2023-05-07T03:07:04;9.48;;;8.38;;
41077;SDS011;26823;42.662;23.352;2023-05-07T03:09:30;11.60;;;8.38;;
41077;SDS011;26823;42.662;23.352;2023-05-07T03:11:56;8.98;;;7.53;;
41077;SDS011;26823;42.662;23.352;2023-05-07T03:14:21;11.57;;;7.43;;
41077;SDS011;26823;42.662;23.352;2023-05-07T03:16:47;10.02;;;8.32;;
41077;SDS011;26823;42.662;23.352;2023-05-07T03:19:12;11.82;;;8.60;;
41077;SDS011;26823;42.662;23.352;2023-05-07T03:21:38;9.27;;;8.20;;
41077;SDS011;26823;42.662;23.352;2023-05-07T03:24:03;12.20;;;8.88;;
41077;SDS011;26823;42.662;23.352;2023-05-07T03:26:29;11.00;;;9.10;;
41077;SDS011;26823;42.662;23.352;2023-05-07T03:28:54;13.68;;;10.65;;
41077;SDS011;26823;42.662;23.352;2023-05-07T03:31:20;13.38;;;10.43;;
41077;SDS011;26823;42.662;23.352;2023-05-07T03:33:52;18.33;;;10.65;;
41077;SDS011;26823;42.662;23.352;2023-05-07T03:36:19;15.18;;;9.90;;
41077;SDS011;26823;42.662;23.352;2023-05-07T03:38:45;14.65;;;10.02;;
41077;SDS011;26823;42.662;23.352;2023-05-07T03:41:11;11.18;;;9.65;;
41077;SDS011;26823;42.662;23.352;2023-05-07T03:43:37;12.80;;;9.70;;
41077;SDS011;26823;42.662;23.352;2023-05-07T03:46:02;12.73;;;9.60;;
41077;SDS011;26823;42.662;23.352;2023-05-07T03:48:27;12.13;;;9.85;;
41077;SDS011;26823;42.662;23.352;2023-05-07T03:50:53;11.00;;;9.25;;
41077;SDS011;26823;42.662;23.352;2023-05-07T03:53:18;12.50;;;9.48;;
41077;SDS011;26823;42.662;23.352;2023-05-07T03:55:43;12.23;;;9.60;;
41077;SDS011;26823;42.662;23.352;2023-05-07T03:58:09;13.43;;;9.63;;
41077;SDS011;26823;42.662;23.352;2023-05-07T04:00:34;13.23;;;9.30;;
41077;SDS011;26823;42.662;23.352;2023-05-07T04:03:03;13.30;;;9.00;;
41077;SDS011;26823;42.662;23.352;2023-05-07T04:05:29;13.52;;;9.38;;
41077;SDS011;26823;42.662;23.352;2023-05-07T04:07:55;10.27;;;9.00;;
41077;SDS011;26823;42.662;23.352;2023-05-07T04:10:21;13.05;;;9.00;;
41077;SDS011;26823;42.662;23.352;2023-05-07T04:12:46;18.05;;;9.88;;
41077;SDS011;26823;42.662;23.352;2023-05-07T04:15:11;12.75;;;8.75;;
41077;SDS011;26823;42.662;23.352;2023-05-07T04:17:37;11.18;;;8.88;;
41077;SDS011;26823;42.662;23.352;2023-05-07T04:20:02;11.73;;;9.18;;
41077;SDS011;26823;42.662;23.352;2023-05-07T04:22:29;13.68;;;9.07;;
41077;SDS011;26823;42.662;23.352;2023-05-07T04:24:54;11.70;;;9.60;;
41077;SDS011;26823;42.662;23.352;2023-05-07T04:27:19;13.93;;;9.13;;
41077;SDS011;26823;42.662;23.352;2023-05-07T04:29:45;15.98;;;9.00;;
41077;SDS011;26823;42.662;23.352;2023-05-07T04:32:12;15.40;;;8.98;;
41077;SDS011;26823;42.662;23.352;2023-05-07T04:34:38;10.85;;;8.60;;
41077;SDS011;26823;42.662;23.352;2023-05-07T04:37:03;12.65;;;9.13;;
41077;SDS011;26823;42.662;23.352;2023-05-07T04:39:29;10.23;;;8.52;;
41077;SDS011;26823;42.662;23.352;2023-05-07T04:41:54;14.90;;;8.80;;
41077;SDS011;26823;42.662;23.352;2023-05-07T04:44:19;10.82;;;8.80;;
41077;SDS011;26823;42.662;23.352;2023-05-07T04:46:45;13.43;;;9.20;;
41077;SDS011;26823;42.662;23.352;2023-05-07T04:49:11;12.13;;;9.40;;
41077;SDS011;26823;42.662;23.352;2023-05-07T04:51:36;11.13;;;9.15;;
41077;SDS011;26823;42.662;23.352;2023-05-07T04:54:03;15.43;;;9.55;;
41077;SDS011;26823;42.662;23.352;2023-05-07T04:56:28;15.18;;;9.23;;
41077;SDS011;26823;42.662;23.352;2023-05-07T04:58:57;11.68;;;8.88;;
41077;SDS011;26823;42.662;23.352;2023-05-07T05:01:22;11.32;;;9.13;;
41077;SDS011;26823;42.662;23.352;2023-05-07T05:03:48;10.68;;;8.63;;
41077;SDS011;26823;42.662;23.352;2023-05-07T05:06:13;14.02;;;9.45;;
41077;SDS011;26823;42.662;23.352;2023-05-07T05:08:39;13.93;;;9.75;;
41077;SDS011;26823;42.662;23.352;2023-05-07T05:11:04;17.35;;;9.27;;
41077;SDS011;26823;42.662;23.352;2023-05-07T05:13:30;12.57;;;8.73;;
41077;SDS011;26823;42.662;23.352;2023-05-07T05:15:55;14.05;;;9.25;;
41077;SDS011;26823;42.662;23.352;2023-05-07T05:18:21;12.98;;;9.10;;
41077;SDS011;26823;42.662;23.352;2023-05-07T05:20:53;20.30;;;12.35;;
41077;SDS011;26823;42.662;23.352;2023-05-07T05:23:18;13.32;;;10.18;;
41077;SDS011;26823;42.662;23.352;2023-05-07T05:25:44;13.27;;;9.55;;
41077;SDS011;26823;42.662;23.352;2023-05-07T05:28:10;13.98;;;9.38;;
41077;SDS011;26823;42.662;23.352;2023-05-07T05:30:35;12.63;;;10.00;;
41077;SDS011;26823;42.662;23.352;2023-05-07T05:33:01;13.13;;;10.60;;
41077;SDS011;26823;42.662;23.352;2023-05-07T05:35:26;14.63;;;10.25;;
41077;SDS011;26823;42.662;23.352;2023-05-07T05:37:51;14.45;;;10.20;;
41077;SDS011;26823;42.662;23.352;2023-05-07T05:40:17;14.15;;;10.75;;
41077;SDS011;26823;42.662;23.352;2023-05-07T05:42:42;12.88;;;9.88;;
41077;SDS011;26823;42.662;23.352;2023-05-07T05:45:08;14.38;;;10.68;;
41077;SDS011;26823;42.662;23.352;2023-05-07T05:47:34;16.42;;;10.63;;
41077;SDS011;26823;42.662;23.352;2023-05-07T05:49:59;13.70;;;10.57;;
41077;SDS011;26823;42.662;23.352;2023-05-07T05:52:24;14.93;;;10.93;;
41077;SDS011;26823;42.662;23.352;2023-05-07T05:54:50;12.30;;;9.73;;
41077;SDS011;26823;42.662;23.352;2023-05-07T05:57:15;12.10;;;9.82;;
41077;SDS011;26823;42.662;23.352;2023-05-07T05:59:41;14.82;;;9.02;;
41077;SDS011;26823;42.662;23.352;2023-05-07T06:02:06;15.30;;;9.70;;
41077;SDS011;26823;42.662;23.352;2023-05-07T06:04:32;12.93;;;9.30;;
41077;SDS011;26823;42.662;23.352;2023-05-07T06:06:57;11.20;;;9.25;;
41077;SDS011;26823;42.662;23.352;2023-05-07T06:09:23;12.25;;;9.27;;
41077;SDS011;26823;42.662;23.352;2023-05-07T06:11:48;12.90;;;7.95;;
41077;SDS011;26823;42.662;23.352;2023-05-07T06:14:14;11.98;;;8.82;;
41077;SDS011;26823;42.662;23.352;2023-05-07T06:16:40;10.80;;;8.18;;
41077;SDS011;26823;42.662;23.352;2023-05-07T06:19:05;13.75;;;8.88;;
41077;SDS011;26823;42.662;23.352;2023-05-07T06:21:31;15.65;;;10.32;;
41077;SDS011;26823;42.662;23.352;2023-05-07T06:23:56;12.32;;;8.57;;
41077;SDS011;26823;42.662;23.352;2023-05-07T06:26:21;9.88;;;7.25;;
41077;SDS011;26823;42.662;23.352;2023-05-07T06:28:47;11.52;;;7.60;;
41077;SDS011;26823;42.662;23.352;2023-05-07T06:33:38;9.40;;;7.57;;
41077;SDS011;26823;42.662;23.352;2023-05-07T06:36:04;10.57;;;7.28;;
41077;SDS011;26823;42.662;23.352;2023-05-07T06:38:30;9.52;;;7.25;;
41077;SDS011;26823;42.662;23.352;2023-05-07T06:41:01;10.38;;;8.10;;
41077;SDS011;26823;42.662;23.352;2023-05-07T06:43:27;10.98;;;8.18;;
41077;SDS011;26823;42.662;23.352;2023-05-07T06:45:52;11.38;;;8.40;;
41077;SDS011;26823;42.662;23.352;2023-05-07T06:48:18;11.52;;;8.45;;
41077;SDS011;26823;42.662;23.352;2023-05-07T06:50:43;11.73;;;8.18;;
41077;SDS011;26823;42.662;23.352;2023-05-07T06:53:09;8.80;;;7.47;;
41077;SDS011;26823;42.662;23.352;2023-05-07T06:55:34;10.50;;;7.28;;
41077;SDS011;26823;42.662;23.352;2023-05-07T06:57:59;9.05;;;7.43;;
41077;SDS011;26823;42.662;23.352;2023-05-07T07:00:29;11.02;;;8.60;;
41077;SDS011;26823;42.662;23.352;2023-05-07T07:02:55;12.25;;;9.05;;
41077;SDS011;26823;42.662;23.352;2023-05-07T07:05:21;12.43;;;8.52;;
41077;SDS011;26823;42.662;23.352;2023-05-07T07:07:47;10.98;;;8.40;;
41077;SDS011;26823;42.662;23.352;2023-05-07T07:10:18;10.73;;;8.15;;
41077;SDS011;26823;42.662;23.352;2023-05-07T07:12:44;9.18;;;7.57;;
41077;SDS011;26823;42.662;23.352;2023-05-07T07:15:10;10.73;;;7.90;;
41077;SDS011;26823;42.662;23.352;2023-05-07T07:17:36;11.80;;;8.85;;
41077;SDS011;26823;42.662;23.352;2023-05-07T07:20:01;9.73;;;8.15;;
41077;SDS011;26823;42.662;23.352;2023-05-07T07:22:27;11.10;;;8.18;;
41077;SDS011;26823;42.662;23.352;2023-05-07T07:24:53;11.20;;;7.70;;
41077;SDS011;26823;42.662;23.352;2023-05-07T07:27:19;8.13;;;7.15;;
41077;SDS011;26823;42.662;23.352;2023-05-07T07:29:44;9.45;;;7.22;;
41077;SDS011;26823;42.662;23.352;2023-05-07T07:32:10;11.48;;;8.10;;
41077;SDS011;26823;42.662;23.352;2023-05-07T07:34:35;9.73;;;7.63;;
41077;SDS011;26823;42.662;23.352;2023-05-07T07:37:00;9.88;;;8.55;;
41077;SDS011;26823;42.662;23.352;2023-05-07T07:39:30;13.98;;;8.70;;
41077;SDS011;26823;42.662;23.352;2023-05-07T07:41:56;13.63;;;7.50;;
41077;SDS011;26823;42.662;23.352;2023-05-07T07:44:21;12.23;;;7.93;;
41077;SDS011;26823;42.662;23.352;2023-05-07T07:46:47;15.80;;;11.00;;
41077;SDS011;26823;42.662;23.352;2023-05-07T07:49:12;9.45;;;8.10;;
41077;SDS011;26823;42.662;23.352;2023-05-07T07:51:37;9.48;;;7.53;;
41077;SDS011;26823;42.662;23.352;2023-05-07T07:54:03;7.65;;;6.85;;
41077;SDS011;26823;42.662;23.352;2023-05-07T07:56:28;8.40;;;6.85;;
41077;SDS011;26823;42.662;23.352;2023-05-07T07:58:54;10.57;;;8.23;;
41077;SDS011;26823;42.662;23.352;2023-05-07T08:01:19;11.82;;;8.02;;
41077;SDS011;26823;42.662;23.352;2023-05-07T08:03:45;9.70;;;8.68;;
41077;SDS011;26823;42.662;23.352;2023-05-07T08:06:10;8.73;;;7.47;;
41077;SDS011;26823;42.662;23.352;2023-05-07T08:08:36;12.63;;;8.25;;
41077;SDS011;26823;42.662;23.352;2023-05-07T08:11:01;12.38;;;9.25;;
41077;SDS011;26823;42.662;23.352;2023-05-07T08:13:26;8.68;;;7.72;;
41077;SDS011;26823;42.662;23.352;2023-05-07T08:15:52;11.48;;;9.18;;
41077;SDS011;26823;42.662;23.352;2023-05-07T08:18:17;10.77;;;6.95;;
41077;SDS011;26823;42.662;23.352;2023-05-07T08:20:43;13.25;;;8.77;;
41077;SDS011;26823;42.662;23.352;2023-05-07T08:23:08;13.13;;;8.63;;
41077;SDS011;26823;42.662;23.352;2023-05-07T08:25:34;9.45;;;7.60;;
41077;SDS011;26823;42.662;23.352;2023-05-07T08:28:00;11.55;;;7.97;;
41077;SDS011;26823;42.662;23.352;2023-05-07T08:30:25;8.18;;;7.25;;
41077;SDS011;26823;42.662;23.352;2023-05-07T08:32:51;8.50;;;7.45;;
41077;SDS011;26823;42.662;23.352;2023-05-07T08:35:16;12.07;;;6.80;;
41077;SDS011;26823;42.662;23.352;2023-05-07T08:37:41;8.90;;;6.28;;
41077;SDS011;26823;42.662;23.352;2023-05-07T08:40:07;8.98;;;7.07;;
41077;SDS011;26823;42.662;23.352;2023-05-07T08:42:36;13.20;;;7.63;;
41077;SDS011;26823;42.662;23.352;2023-05-07T08:45:09;6.25;;;5.65;;
41077;SDS011;26823;42.662;23.352;2023-05-07T08:47:40;12.23;;;7.20;;
41077;SDS011;26823;42.662;23.352;2023-05-07T08:50:09;15.18;;;7.93;;
41077;SDS011;26823;42.662;23.352;2023-05-07T08:52:35;11.10;;;7.68;;
41077;SDS011;26823;42.662;23.352;2023-05-07T08:55:02;8.45;;;7.28;;
41077;SDS011;26823;42.662;23.352;2023-05-07T08:57:28;7.80;;;6.68;;
41077;SDS011;26823;42.662;23.352;2023-05-07T08:59:53;8.13;;;5.53;;
41077;SDS011;26823;42.662;23.352;2023-05-07T09:02:19;7.82;;;5.57;;
41077;SDS011;26823;42.662;23.352;2023-05-07T09:04:44;8.50;;;5.95;;
41077;SDS011;26823;42.662;23.352;2023-05-07T09:07:10;7.95;;;6.20;;
41077;SDS011;26823;42.662;23.352;2023-05-07T09:09:35;10.02;;;6.13;;
41077;SDS011;26823;42.662;23.352;2023-05-07T09:12:02;8.63;;;5.30;;
41077;SDS011;26823;42.662;23.352;2023-05-07T09:14:28;8.90;;;5.28;;
41077;SDS011;26823;42.662;23.352;2023-05-07T09:16:55;8.30;;;5.70;;
41077;SDS011;26823;42.662;23.352;2023-05-07T09:19:24;5.68;;;5.05;;
41077;SDS011;26823;42.662;23.352;2023-05-07T09:22:01;6.50;;;5.80;;
41077;SDS011;26823;42.662;23.352;2023-05-07T09:24:28;8.35;;;5.63;;
41077;SDS011;26823;42.662;23.352;2023-05-07T09:26:59;8.05;;;5.53;;
41077;SDS011;26823;42.662;23.352;2023-05-07T09:29:25;8.77;;;5.55;;
41077;SDS011;26823;42.662;23.352;2023-05-07T09:31:51;6.95;;;5.03;;
41077;SDS011;26823;42.662;23.352;2023-05-07T09:34:16;5.57;;;4.22;;
41077;SDS011;26823;42.662;23.352;2023-05-07T09:36:42;5.22;;;4.50;;
41077;SDS011;26823;42.662;23.352;2023-05-07T09:39:07;9.85;;;4.60;;
41077;SDS011;26823;42.662;23.352;2023-05-07T09:41:33;7.10;;;4.90;;
41077;SDS011;26823;42.662;23.352;2023-05-07T09:44:08;6.05;;;4.57;;
41077;SDS011;26823;42.662;23.352;2023-05-07T09:46:34;7.35;;;4.63;;
41077;SDS011;26823;42.662;23.352;2023-05-07T09:49:02;6.47;;;5.03;;
41077;SDS011;26823;42.662;23.352;2023-05-07T09:51:34;7.13;;;5.13;;
41077;SDS011;26823;42.662;23.352;2023-05-07T09:54:15;4.40;;;4.00;;
41077;SDS011;26823;42.662;23.352;2023-05-07T09:56:42;5.20;;;4.70;;
41077;SDS011;26823;42.662;23.352;2023-05-07T09:59:10;4.20;;;3.80;;
41077;SDS011;26823;42.662;23.352;2023-05-07T10:01:38;8.18;;;4.22;;
41077;SDS011;26823;42.662;23.352;2023-05-07T10:04:05;5.82;;;4.28;;
41077;SDS011;26823;42.662;23.352;2023-05-07T10:06:33;7.28;;;3.72;;
41077;SDS011;26823;42.662;23.352;2023-05-07T10:09:00;4.15;;;3.75;;
41077;SDS011;26823;42.662;23.352;2023-05-07T10:11:27;5.47;;;3.70;;
41077;SDS011;26823;42.662;23.352;2023-05-07T10:13:53;4.82;;;3.67;;
41077;SDS011;26823;42.662;23.352;2023-05-07T10:16:18;8.15;;;3.95;;
41077;SDS011;26823;42.662;23.352;2023-05-07T10:18:46;4.35;;;3.28;;
41077;SDS011;26823;42.662;23.352;2023-05-07T10:21:19;4.93;;;3.78;;
41077;SDS011;26823;42.662;23.352;2023-05-07T10:23:49;4.88;;;3.67;;
41077;SDS011;26823;42.662;23.352;2023-05-07T10:26:17;4.60;;;3.70;;
41077;SDS011;26823;42.662;23.352;2023-05-07T10:28:46;5.55;;;3.58;;
41077;SDS011;26823;42.662;23.352;2023-05-07T10:31:33;6.60;;;3.40;;
41077;SDS011;26823;42.662;23.352;2023-05-07T10:34:11;5.25;;;4.40;;
41077;SDS011;26823;42.662;23.352;2023-05-07T10:36:41;9.32;;;3.80;;
41077;SDS011;26823;42.662;23.352;2023-05-07T10:39:08;5.28;;;4.00;;
41077;SDS011;26823;42.662;23.352;2023-05-07T10:41:34;5.43;;;3.33;;
41077;SDS011;26823;42.662;23.352;2023-05-07T10:44:00;9.68;;;4.03;;
41077;SDS011;26823;42.662;23.352;2023-05-07T10:46:27;5.70;;;3.97;;
41077;SDS011;26823;42.662;23.352;2023-05-07T10:51:33;4.32;;;3.15;;
41077;SDS011;26823;42.662;23.352;2023-05-07T11:01:49;3.90;;;3.28;;
41077;SDS011;26823;42.662;23.352;2023-05-07T11:04:16;4.53;;;3.20;;
41077;SDS011;26823;42.662;23.352;2023-05-07T11:07:34;5.93;;;3.50;;
41077;SDS011;26823;42.662;23.352;2023-05-07T11:17:29;5.20;;;3.47;;
41077;SDS011;26823;42.662;23.352;2023-05-07T11:19:57;4.30;;;3.50;;
41077;SDS011;26823;42.662;23.352;2023-05-07T11:25:01;5.55;;;3.22;;
41077;SDS011;26823;42.662;23.352;2023-05-07T11:27:27;4.38;;;3.60;;
41077;SDS011;26823;42.662;23.352;2023-05-07T11:29:54;4.43;;;3.33;;
41077;SDS011;26823;42.662;23.352;2023-05-07T11:32:22;6.78;;;3.47;;
41077;SDS011;26823;42.662;23.352;2023-05-07T11:34:52;4.00;;;3.60;;
41077;SDS011;26823;42.662;23.352;2023-05-07T11:37:22;5.05;;;2.92;;
41077;SDS011;26823;42.662;23.352;2023-05-07T11:39:48;4.20;;;3.20;;
41077;SDS011;26823;42.662;23.352;2023-05-07T11:42:33;4.25;;;3.70;;
41077;SDS011;26823;42.662;23.352;2023-05-07T11:45:01;4.57;;;3.15;;
41077;SDS011;26823;42.662;23.352;2023-05-07T11:47:29;4.35;;;3.72;;
41077;SDS011;26823;42.662;23.352;2023-05-07T11:49:55;7.03;;;3.63;;
41077;SDS011;26823;42.662;23.352;2023-05-07T11:52:21;3.72;;;3.30;;
41077;SDS011;26823;42.662;23.352;2023-05-07T11:54:49;5.65;;;3.47;;
41077;SDS011;26823;42.662;23.352;2023-05-07T11:57:17;3.83;;;3.53;;
41077;SDS011;26823;42.662;23.352;2023-05-07T11:59:43;6.45;;;3.75;;
41077;SDS011;26823;42.662;23.352;2023-05-07T12:02:15;4.88;;;3.70;;
41077;SDS011;26823;42.662;23.352;2023-05-07T12:04:46;4.97;;;3.80;;
41077;SDS011;26823;42.662;23.352;2023-05-07T12:07:12;3.78;;;3.42;;
41077;SDS011;26823;42.662;23.352;2023-05-07T12:09:41;8.18;;;3.47;;
41077;SDS011;26823;42.662;23.352;2023-05-07T12:12:06;3.58;;;3.28;;
41077;SDS011;26823;42.662;23.352;2023-05-07T12:14:32;5.53;;;3.53;;
41077;SDS011;26823;42.662;23.352;2023-05-07T12:17:02;3.88;;;3.45;;
41077;SDS011;26823;42.662;23.352;2023-05-07T12:19:30;5.05;;;3.80;;
41077;SDS011;26823;42.662;23.352;2023-05-07T12:21:55;4.30;;;3.90;;
41077;SDS011;26823;42.662;23.352;2023-05-07T12:24:22;4.72;;;3.65;;
41077;SDS011;26823;42.662;23.352;2023-05-07T12:26:48;5.22;;;3.50;;
41077;SDS011;26823;42.662;23.352;2023-05-07T12:29:13;4.15;;;3.35;;
41077;SDS011;26823;42.662;23.352;2023-05-07T12:31:42;3.92;;;3.55;;
41077;SDS011;26823;42.662;23.352;2023-05-07T12:34:08;3.92;;;3.50;;
41077;SDS011;26823;42.662;23.352;2023-05-07T12:36:37;5.13;;;3.97;;
41077;SDS011;26823;42.662;23.352;2023-05-07T12:39:04;4.68;;;3.80;;
41077;SDS011;26823;42.662;23.352;2023-05-07T12:41:52;6.03;;;3.58;;
41077;SDS011;26823;42.662;23.352;2023-05-07T12:44:34;6.95;;;4.88;;
41077;SDS011;26823;42.662;23.352;2023-05-07T12:47:02;4.90;;;3.50;;
41077;SDS011;26823;42.662;23.352;2023-05-07T12:49:28;4.07;;;2.70;;
41077;SDS011;26823;42.662;23.352;2023-05-07T12:51:53;4.72;;;3.13;;
41077;SDS011;26823;42.662;23.352;2023-05-07T12:54:29;3.00;;;2.72;;
41077;SDS011;26823;42.662;23.352;2023-05-07T12:57:01;4.45;;;2.30;;
41077;SDS011;26823;42.662;23.352;2023-05-07T12:59:40;2.53;;;2.33;;
41077;SDS011;26823;42.662;23.352;2023-05-07T13:02:06;2.90;;;2.50;;
41077;SDS011;26823;42.662;23.352;2023-05-07T13:04:33;3.42;;;3.13;;
41077;SDS011;26823;42.662;23.352;2023-05-07T13:06:59;3.00;;;2.70;;
41077;SDS011;26823;42.662;23.352;2023-05-07T13:09:25;5.07;;;2.88;;
41077;SDS011;26823;42.662;23.352;2023-05-07T13:11:51;3.33;;;2.90;;
41077;SDS011;26823;42.662;23.352;2023-05-07T13:14:16;4.97;;;2.53;;
41077;SDS011;26823;42.662;23.352;2023-05-07T13:16:42;3.80;;;3.33;;
41077;SDS011;26823;42.662;23.352;2023-05-07T13:19:07;3.20;;;2.65;;
41077;SDS011;26823;42.662;23.352;2023-05-07T13:21:33;4.35;;;3.15;;
41077;SDS011;26823;42.662;23.352;2023-05-07T13:23:58;3.40;;;2.80;;
41077;SDS011;26823;42.662;23.352;2023-05-07T13:26:24;2.67;;;2.40;;
41077;SDS011;26823;42.662;23.352;2023-05-07T13:28:51;4.97;;;2.40;;
41077;SDS011;26823;42.662;23.352;2023-05-07T13:31:17;2.67;;;2.40;;
41077;SDS011;26823;42.662;23.352;2023-05-07T13:33:43;2.70;;;2.50;;
41077;SDS011;26823;42.662;23.352;2023-05-07T13:36:08;4.18;;;2.90;;
41077;SDS011;26823;42.662;23.352;2023-05-07T13:38:34;2.70;;;2.50;;
41077;SDS011;26823;42.662;23.352;2023-05-07T13:41:00;2.58;;;2.40;;
41077;SDS011;26823;42.662;23.352;2023-05-07T13:43:25;2.83;;;2.63;;
41077;SDS011;26823;42.662;23.352;2023-05-07T13:45:51;4.60;;;2.70;;
41077;SDS011;26823;42.662;23.352;2023-05-07T13:48:16;4.75;;;3.42;;
41077;SDS011;26823;42.662;23.352;2023-05-07T13:50:41;2.47;;;2.28;;
41077;SDS011;26823;42.662;23.352;2023-05-07T13:53:07;2.85;;;2.42;;
41077;SDS011;26823;42.662;23.352;2023-05-07T13:55:33;2.33;;;2.08;;
41077;SDS011;26823;42.662;23.352;2023-05-07T13:57:59;2.90;;;2.70;;
41077;SDS011;26823;42.662;23.352;2023-05-07T14:00:26;5.30;;;2.67;;
41077;SDS011;26823;42.662;23.352;2023-05-07T14:02:53;2.92;;;2.65;;
41077;SDS011;26823;42.662;23.352;2023-05-07T14:05:19;2.40;;;2.25;;
41077;SDS011;26823;42.662;23.352;2023-05-07T14:07:45;4.10;;;2.08;;
41077;SDS011;26823;42.662;23.352;2023-05-07T14:10:11;2.50;;;2.30;;
41077;SDS011;26823;42.662;23.352;2023-05-07T14:12:38;2.78;;;2.33;;
41077;SDS011;26823;42.662;23.352;2023-05-07T14:15:03;2.22;;;2.08;;
41077;SDS011;26823;42.662;23.352;2023-05-07T14:17:29;3.40;;;2.35;;
41077;SDS011;26823;42.662;23.352;2023-05-07T14:19:55;2.30;;;2.17;;
41077;SDS011;26823;42.662;23.352;2023-05-07T14:22:20;4.43;;;2.60;;
41077;SDS011;26823;42.662;23.352;2023-05-07T14:24:47;3.70;;;2.45;;
41077;SDS011;26823;42.662;23.352;2023-05-07T14:27:13;7.15;;;3.30;;
41077;SDS011;26823;42.662;23.352;2023-05-07T14:29:38;3.95;;;2.80;;
41077;SDS011;26823;42.662;23.352;2023-05-07T14:32:04;6.38;;;2.60;;
41077;SDS011;26823;42.662;23.352;2023-05-07T14:34:30;10.73;;;4.10;;
41077;SDS011;26823;42.662;23.352;2023-05-07T14:36:56;22.60;;;5.50;;
41077;SDS011;26823;42.662;23.352;2023-05-07T14:39:21;5.35;;;3.13;;
41077;SDS011;26823;42.662;23.352;2023-05-07T14:41:47;10.50;;;4.07;;
41077;SDS011;26823;42.662;23.352;2023-05-07T14:44:12;5.53;;;3.28;;
41077;SDS011;26823;42.662;23.352;2023-05-07T14:46:38;7.60;;;3.92;;
41077;SDS011;26823;42.662;23.352;2023-05-07T14:49:03;5.35;;;2.80;;